sensor_id;sensor_type;location;lat;lon;timestamp;P1;durP1;ratioP1;P2;durP2;ratioP2
63087;SDS011;49173;43.164;27.786;2023-08-06T00:01:50;12.02;;;7.30;;
63087;SDS011;49173;43.164;27.786;2023-08-06T00:04:15;10.95;;;7.55;;
63087;SDS011;49173;43.164;27.786;2023-08-06T00:06:41;10.95;;;8.10;;
63087;SDS011;49173;43.164;27.786;2023-08-06T00:09:07;12.82;;;7.70;;
63087;SDS011;49173;43.164;27.786;2023-08-06T00:11:33;16.15;;;7.15;;
63087;SDS011;49173;43.164;27.786;2023-08-06T00:13:59;13.30;;;7.60;;
63087;SDS011;49173;43.164;27.786;2023-08-06T00:16:25;11.32;;;7.18;;
63087;SDS011;49173;43.164;27.786;2023-08-06T00:18:50;15.32;;;7.88;;
63087;SDS011;49173;43.164;27.786;2023-08-06T00:21:16;13.35;;;7.65;;
63087;SDS011;49173;43.164;27.786;2023-08-06T00:23:42;12.73;;;7.05;;
63087;SDS011;49173;43.164;27.786;2023-08-06T00:26:08;12.57;;;7.60;;
63087;SDS011;49173;43.164;27.786;2023-08-06T00:28:33;9.50;;;6.97;;
63087;SDS011;49173;43.164;27.786;2023-08-06T00:30:59;12.43;;;6.95;;
63087;SDS011;49173;43.164;27.786;2023-08-06T00:33:25;13.10;;;7.20;;
63087;SDS011;49173;43.164;27.786;2023-08-06T00:35:51;11.77;;;6.90;;
63087;SDS011;49173;43.164;27.786;2023-08-06T00:38:16;11.13;;;7.05;;
63087;SDS011;49173;43.164;27.786;2023-08-06T00:40:42;13.68;;;7.40;;
63087;SDS011;49173;43.164;27.786;2023-08-06T00:43:08;11.13;;;6.90;;
63087;SDS011;49173;43.164;27.786;2023-08-06T00:45:35;10.23;;;6.90;;
63087;SDS011;49173;43.164;27.786;2023-08-06T00:48:03;11.52;;;7.15;;
63087;SDS011;49173;43.164;27.786;2023-08-06T00:50:31;10.73;;;7.43;;
63087;SDS011;49173;43.164;27.786;2023-08-06T00:52:57;11.32;;;7.20;;
63087;SDS011;49173;43.164;27.786;2023-08-06T00:55:24;13.77;;;6.95;;
63087;SDS011;49173;43.164;27.786;2023-08-06T00:57:50;10.43;;;6.75;;
63087;SDS011;49173;43.164;27.786;2023-08-06T01:00:18;12.25;;;7.47;;
63087;SDS011;49173;43.164;27.786;2023-08-06T01:02:45;11.73;;;7.57;;
63087;SDS011;49173;43.164;27.786;2023-08-06T01:05:11;11.70;;;7.13;;
63087;SDS011;49173;43.164;27.786;2023-08-06T01:15:36;14.68;;;6.93;;
63087;SDS011;49173;43.164;27.786;2023-08-06T01:18:07;11.48;;;6.75;;
63087;SDS011;49173;43.164;27.786;2023-08-06T01:20:34;11.48;;;6.80;;
63087;SDS011;49173;43.164;27.786;2023-08-06T01:23:00;10.85;;;6.90;;
63087;SDS011;49173;43.164;27.786;2023-08-06T01:25:27;11.80;;;7.13;;
63087;SDS011;49173;43.164;27.786;2023-08-06T01:28:00;11.38;;;7.32;;
63087;SDS011;49173;43.164;27.786;2023-08-06T01:30:33;9.85;;;6.90;;
63087;SDS011;49173;43.164;27.786;2023-08-06T01:33:04;11.80;;;6.85;;
63087;SDS011;49173;43.164;27.786;2023-08-06T01:35:31;9.57;;;7.20;;
63087;SDS011;49173;43.164;27.786;2023-08-06T01:37:58;9.20;;;6.80;;
63087;SDS011;49173;43.164;27.786;2023-08-06T01:40:25;9.57;;;6.93;;
63087;SDS011;49173;43.164;27.786;2023-08-06T01:42:53;12.60;;;6.87;;
63087;SDS011;49173;43.164;27.786;2023-08-06T01:45:19;11.57;;;7.50;;
63087;SDS011;49173;43.164;27.786;2023-08-06T01:47:44;10.02;;;6.65;;
63087;SDS011;49173;43.164;27.786;2023-08-06T01:50:10;11.82;;;6.85;;
63087;SDS011;49173;43.164;27.786;2023-08-06T01:52:36;13.32;;;6.70;;
63087;SDS011;49173;43.164;27.786;2023-08-06T01:55:04;10.32;;;7.13;;
63087;SDS011;49173;43.164;27.786;2023-08-06T01:57:30;9.77;;;7.40;;
63087;SDS011;49173;43.164;27.786;2023-08-06T01:59:55;12.23;;;7.00;;
63087;SDS011;49173;43.164;27.786;2023-08-06T02:02:21;14.48;;;7.28;;
63087;SDS011;49173;43.164;27.786;2023-08-06T02:04:47;10.68;;;7.55;;
63087;SDS011;49173;43.164;27.786;2023-08-06T02:07:12;11.38;;;6.72;;
63087;SDS011;49173;43.164;27.786;2023-08-06T02:09:38;12.00;;;7.13;;
63087;SDS011;49173;43.164;27.786;2023-08-06T02:12:05;11.65;;;7.00;;
63087;SDS011;49173;43.164;27.786;2023-08-06T02:14:31;9.68;;;7.70;;
63087;SDS011;49173;43.164;27.786;2023-08-06T02:16:57;9.90;;;7.07;;
63087;SDS011;49173;43.164;27.786;2023-08-06T02:19:23;10.75;;;7.68;;
63087;SDS011;49173;43.164;27.786;2023-08-06T02:21:49;12.18;;;7.65;;
63087;SDS011;49173;43.164;27.786;2023-08-06T02:24:14;14.18;;;7.57;;
63087;SDS011;49173;43.164;27.786;2023-08-06T02:26:40;9.75;;;6.90;;
63087;SDS011;49173;43.164;27.786;2023-08-06T02:29:06;10.95;;;7.40;;
63087;SDS011;49173;43.164;27.786;2023-08-06T02:31:31;12.32;;;6.93;;
63087;SDS011;49173;43.164;27.786;2023-08-06T02:33:57;13.20;;;7.32;;
63087;SDS011;49173;43.164;27.786;2023-08-06T02:36:23;10.88;;;7.72;;
63087;SDS011;49173;43.164;27.786;2023-08-06T02:38:49;13.90;;;7.50;;
63087;SDS011;49173;43.164;27.786;2023-08-06T02:41:15;10.80;;;7.53;;
63087;SDS011;49173;43.164;27.786;2023-08-06T02:43:41;15.68;;;7.85;;
63087;SDS011;49173;43.164;27.786;2023-08-06T02:46:07;12.75;;;7.85;;
63087;SDS011;49173;43.164;27.786;2023-08-06T02:48:32;14.20;;;7.63;;
63087;SDS011;49173;43.164;27.786;2023-08-06T02:50:59;10.93;;;7.25;;
63087;SDS011;49173;43.164;27.786;2023-08-06T02:53:25;12.77;;;7.15;;
63087;SDS011;49173;43.164;27.786;2023-08-06T02:55:51;14.02;;;7.18;;
63087;SDS011;49173;43.164;27.786;2023-08-06T02:58:17;10.48;;;6.90;;
63087;SDS011;49173;43.164;27.786;2023-08-06T03:00:58;9.55;;;7.82;;
63087;SDS011;49173;43.164;27.786;2023-08-06T03:03:34;12.23;;;7.38;;
63087;SDS011;49173;43.164;27.786;2023-08-06T03:06:00;10.73;;;6.75;;
63087;SDS011;49173;43.164;27.786;2023-08-06T03:08:26;11.30;;;7.97;;
63087;SDS011;49173;43.164;27.786;2023-08-06T03:10:52;12.05;;;7.82;;
63087;SDS011;49173;43.164;27.786;2023-08-06T03:13:18;8.02;;;7.22;;
63087;SDS011;49173;43.164;27.786;2023-08-06T03:15:51;15.70;;;7.22;;
63087;SDS011;49173;43.164;27.786;2023-08-06T03:18:21;10.68;;;8.13;;
63087;SDS011;49173;43.164;27.786;2023-08-06T03:20:47;13.35;;;7.45;;
63087;SDS011;49173;43.164;27.786;2023-08-06T03:23:13;11.65;;;7.22;;
63087;SDS011;49173;43.164;27.786;2023-08-06T03:25:38;11.68;;;7.65;;
63087;SDS011;49173;43.164;27.786;2023-08-06T03:28:04;12.25;;;7.07;;
63087;SDS011;49173;43.164;27.786;2023-08-06T03:30:30;10.85;;;7.53;;
63087;SDS011;49173;43.164;27.786;2023-08-06T03:32:55;10.75;;;7.75;;
63087;SDS011;49173;43.164;27.786;2023-08-06T03:35:21;11.70;;;7.97;;
63087;SDS011;49173;43.164;27.786;2023-08-06T03:37:47;13.40;;;8.70;;
63087;SDS011;49173;43.164;27.786;2023-08-06T03:40:15;9.60;;;7.60;;
63087;SDS011;49173;43.164;27.786;2023-08-06T03:42:41;12.35;;;7.65;;
63087;SDS011;49173;43.164;27.786;2023-08-06T03:45:07;15.40;;;8.32;;
63087;SDS011;49173;43.164;27.786;2023-08-06T03:47:33;10.20;;;7.45;;
63087;SDS011;49173;43.164;27.786;2023-08-06T03:49:58;11.23;;;7.90;;
63087;SDS011;49173;43.164;27.786;2023-08-06T03:52:24;10.48;;;7.72;;
63087;SDS011;49173;43.164;27.786;2023-08-06T03:54:50;12.85;;;7.72;;
63087;SDS011;49173;43.164;27.786;2023-08-06T03:57:15;15.32;;;8.30;;
63087;SDS011;49173;43.164;27.786;2023-08-06T03:59:41;10.43;;;7.93;;
63087;SDS011;49173;43.164;27.786;2023-08-06T04:02:07;13.85;;;8.18;;
63087;SDS011;49173;43.164;27.786;2023-08-06T04:04:33;10.23;;;7.50;;
63087;SDS011;49173;43.164;27.786;2023-08-06T04:06:58;11.60;;;7.93;;
63087;SDS011;49173;43.164;27.786;2023-08-06T04:09:24;12.40;;;8.00;;
63087;SDS011;49173;43.164;27.786;2023-08-06T04:11:50;10.02;;;8.45;;
63087;SDS011;49173;43.164;27.786;2023-08-06T04:14:15;11.68;;;8.10;;
63087;SDS011;49173;43.164;27.786;2023-08-06T04:16:41;12.18;;;7.50;;
63087;SDS011;49173;43.164;27.786;2023-08-06T04:19:07;12.40;;;7.35;;
63087;SDS011;49173;43.164;27.786;2023-08-06T04:21:33;9.38;;;6.97;;
63087;SDS011;49173;43.164;27.786;2023-08-06T04:23:59;13.30;;;8.30;;
63087;SDS011;49173;43.164;27.786;2023-08-06T04:26:25;9.50;;;7.18;;
63087;SDS011;49173;43.164;27.786;2023-08-06T04:28:50;9.50;;;7.47;;
63087;SDS011;49173;43.164;27.786;2023-08-06T04:31:16;13.90;;;7.60;;
63087;SDS011;49173;43.164;27.786;2023-08-06T04:33:42;12.32;;;7.75;;
63087;SDS011;49173;43.164;27.786;2023-08-06T04:36:08;11.52;;;7.50;;
63087;SDS011;49173;43.164;27.786;2023-08-06T04:38:34;14.25;;;7.70;;
63087;SDS011;49173;43.164;27.786;2023-08-06T04:41:01;15.52;;;7.68;;
63087;SDS011;49173;43.164;27.786;2023-08-06T04:43:28;15.07;;;8.20;;
63087;SDS011;49173;43.164;27.786;2023-08-06T04:45:54;12.70;;;7.88;;
63087;SDS011;49173;43.164;27.786;2023-08-06T04:48:21;11.88;;;7.35;;
63087;SDS011;49173;43.164;27.786;2023-08-06T04:50:49;13.25;;;7.13;;
63087;SDS011;49173;43.164;27.786;2023-08-06T04:53:16;10.55;;;7.00;;
63087;SDS011;49173;43.164;27.786;2023-08-06T04:55:42;11.35;;;6.43;;
63087;SDS011;49173;43.164;27.786;2023-08-06T04:58:09;12.30;;;7.38;;
63087;SDS011;49173;43.164;27.786;2023-08-06T05:00:36;12.90;;;6.88;;
63087;SDS011;49173;43.164;27.786;2023-08-06T05:03:02;10.73;;;6.10;;
63087;SDS011;49173;43.164;27.786;2023-08-06T05:05:28;10.48;;;6.40;;
63087;SDS011;49173;43.164;27.786;2023-08-06T05:07:56;11.15;;;7.13;;
63087;SDS011;49173;43.164;27.786;2023-08-06T05:10:26;9.10;;;5.65;;
63087;SDS011;49173;43.164;27.786;2023-08-06T05:12:52;10.07;;;6.07;;
63087;SDS011;49173;43.164;27.786;2023-08-06T05:15:19;10.18;;;6.28;;
63087;SDS011;49173;43.164;27.786;2023-08-06T05:17:45;11.73;;;5.70;;
63087;SDS011;49173;43.164;27.786;2023-08-06T05:20:11;11.55;;;5.82;;
63087;SDS011;49173;43.164;27.786;2023-08-06T05:22:37;8.98;;;6.32;;
63087;SDS011;49173;43.164;27.786;2023-08-06T05:25:02;10.13;;;5.93;;
63087;SDS011;49173;43.164;27.786;2023-08-06T05:27:29;11.40;;;5.85;;
63087;SDS011;49173;43.164;27.786;2023-08-06T05:29:55;10.15;;;5.93;;
63087;SDS011;49173;43.164;27.786;2023-08-06T05:32:24;9.20;;;5.22;;
63087;SDS011;49173;43.164;27.786;2023-08-06T05:34:50;11.25;;;5.15;;
63087;SDS011;49173;43.164;27.786;2023-08-06T05:37:16;9.80;;;5.43;;
63087;SDS011;49173;43.164;27.786;2023-08-06T05:39:41;8.70;;;5.30;;
63087;SDS011;49173;43.164;27.786;2023-08-06T05:42:07;12.07;;;5.68;;
63087;SDS011;49173;43.164;27.786;2023-08-06T05:44:33;10.23;;;5.50;;
63087;SDS011;49173;43.164;27.786;2023-08-06T05:46:58;13.80;;;5.75;;
63087;SDS011;49173;43.164;27.786;2023-08-06T05:49:25;12.27;;;5.18;;
63087;SDS011;49173;43.164;27.786;2023-08-06T05:51:50;10.10;;;5.10;;
63087;SDS011;49173;43.164;27.786;2023-08-06T05:54:18;16.40;;;5.50;;
63087;SDS011;49173;43.164;27.786;2023-08-06T05:56:44;7.43;;;4.60;;
63087;SDS011;49173;43.164;27.786;2023-08-06T05:59:10;9.07;;;5.35;;
63087;SDS011;49173;43.164;27.786;2023-08-06T06:01:36;10.30;;;4.88;;
63087;SDS011;49173;43.164;27.786;2023-08-06T06:04:02;11.68;;;4.78;;
63087;SDS011;49173;43.164;27.786;2023-08-06T06:06:27;9.77;;;5.18;;
63087;SDS011;49173;43.164;27.786;2023-08-06T06:08:53;13.43;;;5.18;;
63087;SDS011;49173;43.164;27.786;2023-08-06T06:11:19;9.70;;;5.47;;
63087;SDS011;49173;43.164;27.786;2023-08-06T06:13:49;10.48;;;5.03;;
63087;SDS011;49173;43.164;27.786;2023-08-06T06:18:41;10.32;;;4.82;;
63087;SDS011;49173;43.164;27.786;2023-08-06T06:21:07;11.23;;;5.20;;
63087;SDS011;49173;43.164;27.786;2023-08-06T06:23:33;9.93;;;4.97;;
63087;SDS011;49173;43.164;27.786;2023-08-06T06:25:59;9.27;;;5.00;;
63087;SDS011;49173;43.164;27.786;2023-08-06T06:28:25;10.95;;;4.60;;
63087;SDS011;49173;43.164;27.786;2023-08-06T06:30:51;10.02;;;4.90;;
63087;SDS011;49173;43.164;27.786;2023-08-06T06:33:17;8.25;;;4.53;;
63087;SDS011;49173;43.164;27.786;2023-08-06T06:35:43;7.50;;;4.97;;
63087;SDS011;49173;43.164;27.786;2023-08-06T06:38:08;9.85;;;4.57;;
63087;SDS011;49173;43.164;27.786;2023-08-06T06:40:34;6.43;;;4.38;;
63087;SDS011;49173;43.164;27.786;2023-08-06T06:43:00;9.48;;;4.75;;
63087;SDS011;49173;43.164;27.786;2023-08-06T06:45:26;9.10;;;4.10;;
63087;SDS011;49173;43.164;27.786;2023-08-06T06:47:52;9.32;;;4.63;;
63087;SDS011;49173;43.164;27.786;2023-08-06T06:50:18;11.88;;;4.72;;
63087;SDS011;49173;43.164;27.786;2023-08-06T06:52:44;9.25;;;4.20;;
63087;SDS011;49173;43.164;27.786;2023-08-06T06:55:09;8.02;;;4.47;;
63087;SDS011;49173;43.164;27.786;2023-08-06T06:57:35;8.13;;;4.07;;
63087;SDS011;49173;43.164;27.786;2023-08-06T07:00:01;9.05;;;4.07;;
63087;SDS011;49173;43.164;27.786;2023-08-06T07:02:26;8.15;;;3.95;;
63087;SDS011;49173;43.164;27.786;2023-08-06T07:04:52;6.68;;;4.00;;
63087;SDS011;49173;43.164;27.786;2023-08-06T07:07:18;8.90;;;4.40;;
63087;SDS011;49173;43.164;27.786;2023-08-06T07:09:44;7.05;;;4.00;;
63087;SDS011;49173;43.164;27.786;2023-08-06T07:12:10;7.78;;;4.10;;
63087;SDS011;49173;43.164;27.786;2023-08-06T07:14:35;5.05;;;3.72;;
63087;SDS011;49173;43.164;27.786;2023-08-06T07:17:01;5.60;;;3.97;;
63087;SDS011;49173;43.164;27.786;2023-08-06T07:19:27;8.07;;;4.18;;
63087;SDS011;49173;43.164;27.786;2023-08-06T07:21:53;6.07;;;4.38;;
63087;SDS011;49173;43.164;27.786;2023-08-06T07:24:19;8.05;;;3.88;;
63087;SDS011;49173;43.164;27.786;2023-08-06T07:26:44;5.82;;;3.70;;
63087;SDS011;49173;43.164;27.786;2023-08-06T07:29:10;6.93;;;3.65;;
63087;SDS011;49173;43.164;27.786;2023-08-06T07:31:36;9.48;;;4.07;;
63087;SDS011;49173;43.164;27.786;2023-08-06T07:34:02;8.80;;;4.07;;
63087;SDS011;49173;43.164;27.786;2023-08-06T07:36:28;6.32;;;3.65;;
63087;SDS011;49173;43.164;27.786;2023-08-06T07:38:54;7.65;;;3.90;;
63087;SDS011;49173;43.164;27.786;2023-08-06T07:41:25;5.97;;;3.73;;
63087;SDS011;49173;43.164;27.786;2023-08-06T07:46:16;6.70;;;4.03;;
63087;SDS011;49173;43.164;27.786;2023-08-06T07:48:42;7.35;;;3.88;;
63087;SDS011;49173;43.164;27.786;2023-08-06T07:51:07;6.47;;;3.83;;
63087;SDS011;49173;43.164;27.786;2023-08-06T07:53:33;8.43;;;3.80;;
63087;SDS011;49173;43.164;27.786;2023-08-06T07:55:59;6.55;;;3.55;;
63087;SDS011;49173;43.164;27.786;2023-08-06T07:58:27;9.43;;;4.10;;
63087;SDS011;49173;43.164;27.786;2023-08-06T08:00:55;7.38;;;3.67;;
63087;SDS011;49173;43.164;27.786;2023-08-06T08:03:20;6.40;;;3.25;;
63087;SDS011;49173;43.164;27.786;2023-08-06T08:05:46;9.00;;;3.53;;
63087;SDS011;49173;43.164;27.786;2023-08-06T08:08:12;7.55;;;3.95;;
63087;SDS011;49173;43.164;27.786;2023-08-06T08:10:38;8.55;;;3.55;;
63087;SDS011;49173;43.164;27.786;2023-08-06T08:13:06;8.77;;;4.10;;
63087;SDS011;49173;43.164;27.786;2023-08-06T08:15:32;8.40;;;3.70;;
63087;SDS011;49173;43.164;27.786;2023-08-06T08:18:00;8.18;;;3.75;;
63087;SDS011;49173;43.164;27.786;2023-08-06T08:20:27;8.32;;;3.67;;
63087;SDS011;49173;43.164;27.786;2023-08-06T08:23:00;9.75;;;3.65;;
63087;SDS011;49173;43.164;27.786;2023-08-06T08:25:27;10.02;;;3.80;;
63087;SDS011;49173;43.164;27.786;2023-08-06T08:27:53;9.18;;;3.47;;
63087;SDS011;49173;43.164;27.786;2023-08-06T08:30:20;9.60;;;3.50;;
63087;SDS011;49173;43.164;27.786;2023-08-06T08:32:47;9.80;;;4.07;;
63087;SDS011;49173;43.164;27.786;2023-08-06T08:35:14;11.15;;;4.30;;
63087;SDS011;49173;43.164;27.786;2023-08-06T08:37:41;6.30;;;3.63;;
63087;SDS011;49173;43.164;27.786;2023-08-06T08:40:09;6.85;;;4.00;;
63087;SDS011;49173;43.164;27.786;2023-08-06T08:42:36;5.40;;;3.60;;
63087;SDS011;49173;43.164;27.786;2023-08-06T08:45:02;7.82;;;3.80;;
63087;SDS011;49173;43.164;27.786;2023-08-06T08:47:34;6.20;;;3.63;;
63087;SDS011;49173;43.164;27.786;2023-08-06T08:50:01;8.65;;;3.72;;
63087;SDS011;49173;43.164;27.786;2023-08-06T08:52:30;7.00;;;3.47;;
63087;SDS011;49173;43.164;27.786;2023-08-06T08:54:57;9.90;;;3.70;;
63087;SDS011;49173;43.164;27.786;2023-08-06T08:57:27;13.88;;;3.70;;
63087;SDS011;49173;43.164;27.786;2023-08-06T08:59:53;8.32;;;3.95;;
63087;SDS011;49173;43.164;27.786;2023-08-06T09:02:19;9.40;;;3.25;;
63087;SDS011;49173;43.164;27.786;2023-08-06T09:04:47;7.65;;;4.00;;
63087;SDS011;49173;43.164;27.786;2023-08-06T09:07:16;10.88;;;4.15;;
63087;SDS011;49173;43.164;27.786;2023-08-06T09:09:43;6.68;;;3.80;;
63087;SDS011;49173;43.164;27.786;2023-08-06T09:12:14;10.23;;;3.72;;
63087;SDS011;49173;43.164;27.786;2023-08-06T09:14:41;8.50;;;3.80;;
63087;SDS011;49173;43.164;27.786;2023-08-06T09:17:08;7.75;;;3.65;;
63087;SDS011;49173;43.164;27.786;2023-08-06T09:19:36;7.13;;;4.22;;
63087;SDS011;49173;43.164;27.786;2023-08-06T09:22:02;8.93;;;3.95;;
63087;SDS011;49173;43.164;27.786;2023-08-06T09:24:30;9.60;;;4.10;;
63087;SDS011;49173;43.164;27.786;2023-08-06T09:26:56;6.50;;;3.47;;
63087;SDS011;49173;43.164;27.786;2023-08-06T09:29:23;8.02;;;4.15;;
63087;SDS011;49173;43.164;27.786;2023-08-06T09:31:50;6.57;;;3.90;;
63087;SDS011;49173;43.164;27.786;2023-08-06T09:34:19;14.48;;;3.97;;
63087;SDS011;49173;43.164;27.786;2023-08-06T09:36:49;5.70;;;3.75;;
63087;SDS011;49173;43.164;27.786;2023-08-06T09:39:19;8.85;;;3.80;;
63087;SDS011;49173;43.164;27.786;2023-08-06T09:41:46;7.82;;;3.60;;
63087;SDS011;49173;43.164;27.786;2023-08-06T09:44:16;8.93;;;4.53;;
63087;SDS011;49173;43.164;27.786;2023-08-06T09:46:50;8.15;;;4.07;;
63087;SDS011;49173;43.164;27.786;2023-08-06T09:49:18;9.55;;;3.80;;
63087;SDS011;49173;43.164;27.786;2023-08-06T09:51:45;6.85;;;4.05;;
63087;SDS011;49173;43.164;27.786;2023-08-06T09:54:16;7.22;;;3.95;;
63087;SDS011;49173;43.164;27.786;2023-08-06T09:56:44;8.63;;;4.05;;
63087;SDS011;49173;43.164;27.786;2023-08-06T09:59:10;9.52;;;3.88;;
63087;SDS011;49173;43.164;27.786;2023-08-06T10:01:39;11.60;;;3.78;;
63087;SDS011;49173;43.164;27.786;2023-08-06T10:04:05;9.50;;;3.90;;
63087;SDS011;49173;43.164;27.786;2023-08-06T10:06:37;7.75;;;3.60;;
63087;SDS011;49173;43.164;27.786;2023-08-06T10:09:03;6.85;;;3.60;;
63087;SDS011;49173;43.164;27.786;2023-08-06T10:11:30;8.15;;;3.72;;
63087;SDS011;49173;43.164;27.786;2023-08-06T10:14:01;7.47;;;3.55;;
63087;SDS011;49173;43.164;27.786;2023-08-06T10:16:32;10.02;;;3.47;;
63087;SDS011;49173;43.164;27.786;2023-08-06T10:18:59;6.63;;;4.10;;
63087;SDS011;49173;43.164;27.786;2023-08-06T10:21:26;7.90;;;3.63;;
63087;SDS011;49173;43.164;27.786;2023-08-06T10:23:53;6.93;;;4.00;;
63087;SDS011;49173;43.164;27.786;2023-08-06T10:26:20;10.20;;;5.80;;
63087;SDS011;49173;43.164;27.786;2023-08-06T10:28:50;10.55;;;3.97;;
63087;SDS011;49173;43.164;27.786;2023-08-06T10:31:16;7.55;;;3.63;;
63087;SDS011;49173;43.164;27.786;2023-08-06T10:33:45;8.10;;;3.88;;
63087;SDS011;49173;43.164;27.786;2023-08-06T10:36:13;8.20;;;3.58;;
63087;SDS011;49173;43.164;27.786;2023-08-06T10:38:46;7.22;;;3.75;;
63087;SDS011;49173;43.164;27.786;2023-08-06T10:41:27;8.95;;;3.70;;
63087;SDS011;49173;43.164;27.786;2023-08-06T10:44:08;7.35;;;3.30;;
63087;SDS011;49173;43.164;27.786;2023-08-06T10:46:35;7.70;;;3.80;;
63087;SDS011;49173;43.164;27.786;2023-08-06T10:49:03;7.03;;;3.80;;
63087;SDS011;49173;43.164;27.786;2023-08-06T10:51:32;5.90;;;3.33;;
63087;SDS011;49173;43.164;27.786;2023-08-06T10:53:58;6.68;;;3.20;;
63087;SDS011;49173;43.164;27.786;2023-08-06T10:56:24;5.93;;;3.05;;
63087;SDS011;49173;43.164;27.786;2023-08-06T10:58:56;8.38;;;3.47;;
63087;SDS011;49173;43.164;27.786;2023-08-06T11:01:22;5.90;;;3.42;;
63087;SDS011;49173;43.164;27.786;2023-08-06T11:03:52;7.22;;;3.22;;
63087;SDS011;49173;43.164;27.786;2023-08-06T11:06:19;6.60;;;3.47;;
63087;SDS011;49173;43.164;27.786;2023-08-06T11:08:53;4.90;;;3.22;;
63087;SDS011;49173;43.164;27.786;2023-08-06T11:11:20;9.98;;;3.53;;
63087;SDS011;49173;43.164;27.786;2023-08-06T11:13:51;11.27;;;3.92;;
63087;SDS011;49173;43.164;27.786;2023-08-06T11:16:18;7.35;;;3.47;;
63087;SDS011;49173;43.164;27.786;2023-08-06T11:18:45;8.20;;;4.03;;
63087;SDS011;49173;43.164;27.786;2023-08-06T11:21:12;5.80;;;3.50;;
63087;SDS011;49173;43.164;27.786;2023-08-06T11:23:38;8.32;;;3.42;;
63087;SDS011;49173;43.164;27.786;2023-08-06T11:26:05;8.98;;;3.60;;
63087;SDS011;49173;43.164;27.786;2023-08-06T11:28:32;6.30;;;3.47;;
63087;SDS011;49173;43.164;27.786;2023-08-06T11:30:58;6.68;;;3.60;;
63087;SDS011;49173;43.164;27.786;2023-08-06T11:33:27;8.93;;;3.72;;
63087;SDS011;49173;43.164;27.786;2023-08-06T11:35:54;6.90;;;3.70;;
63087;SDS011;49173;43.164;27.786;2023-08-06T11:38:27;7.13;;;3.47;;
63087;SDS011;49173;43.164;27.786;2023-08-06T11:40:54;8.00;;;3.60;;
63087;SDS011;49173;43.164;27.786;2023-08-06T11:43:20;11.68;;;3.90;;
63087;SDS011;49173;43.164;27.786;2023-08-06T11:45:48;8.60;;;3.17;;
63087;SDS011;49173;43.164;27.786;2023-08-06T11:48:14;8.88;;;3.30;;
63087;SDS011;49173;43.164;27.786;2023-08-06T11:50:40;15.27;;;3.38;;
63087;SDS011;49173;43.164;27.786;2023-08-06T11:53:06;19.17;;;2.53;;
63087;SDS011;49173;43.164;27.786;2023-08-06T11:55:32;16.88;;;1.70;;
63087;SDS011;49173;43.164;27.786;2023-08-06T11:57:59;4.60;;;1.50;;
63087;SDS011;49173;43.164;27.786;2023-08-06T12:00:29;5.65;;;1.52;;
63087;SDS011;49173;43.164;27.786;2023-08-06T12:02:58;5.20;;;1.40;;
63087;SDS011;49173;43.164;27.786;2023-08-06T12:05:30;3.45;;;1.48;;
63087;SDS011;49173;43.164;27.786;2023-08-06T12:07:59;6.63;;;1.58;;
63087;SDS011;49173;43.164;27.786;2023-08-06T12:10:26;8.88;;;1.73;;
63087;SDS011;49173;43.164;27.786;2023-08-06T12:12:57;7.65;;;1.70;;
63087;SDS011;49173;43.164;27.786;2023-08-06T12:15:23;4.47;;;1.45;;
63087;SDS011;49173;43.164;27.786;2023-08-06T12:17:50;6.30;;;1.38;;
63087;SDS011;49173;43.164;27.786;2023-08-06T12:20:16;7.75;;;1.90;;
63087;SDS011;49173;43.164;27.786;2023-08-06T12:22:42;3.75;;;1.58;;
63087;SDS011;49173;43.164;27.786;2023-08-06T12:25:08;6.47;;;1.60;;
63087;SDS011;49173;43.164;27.786;2023-08-06T12:30:04;7.55;;;1.83;;
63087;SDS011;49173;43.164;27.786;2023-08-06T12:32:31;6.03;;;2.55;;
63087;SDS011;49173;43.164;27.786;2023-08-06T12:34:57;6.80;;;2.45;;
63087;SDS011;49173;43.164;27.786;2023-08-06T12:37:25;6.47;;;2.50;;
63087;SDS011;49173;43.164;27.786;2023-08-06T12:39:51;8.02;;;3.25;;
63087;SDS011;49173;43.164;27.786;2023-08-06T12:42:17;9.57;;;2.60;;
63087;SDS011;49173;43.164;27.786;2023-08-06T12:44:43;5.43;;;2.50;;
63087;SDS011;49173;43.164;27.786;2023-08-06T12:47:09;7.40;;;2.60;;
63087;SDS011;49173;43.164;27.786;2023-08-06T12:49:35;9.70;;;3.20;;
63087;SDS011;49173;43.164;27.786;2023-08-06T12:52:01;8.02;;;2.53;;
63087;SDS011;49173;43.164;27.786;2023-08-06T12:54:27;7.53;;;2.75;;
63087;SDS011;49173;43.164;27.786;2023-08-06T12:56:53;5.78;;;2.50;;
63087;SDS011;49173;43.164;27.786;2023-08-06T12:59:19;6.57;;;2.15;;
63087;SDS011;49173;43.164;27.786;2023-08-06T13:01:45;3.63;;;2.08;;
63087;SDS011;49173;43.164;27.786;2023-08-06T13:04:12;5.03;;;2.10;;
63087;SDS011;49173;43.164;27.786;2023-08-06T13:06:38;5.72;;;2.35;;
63087;SDS011;49173;43.164;27.786;2023-08-06T13:09:08;4.82;;;2.20;;
63087;SDS011;49173;43.164;27.786;2023-08-06T13:11:35;4.97;;;1.92;;
63087;SDS011;49173;43.164;27.786;2023-08-06T13:14:03;4.40;;;2.20;;
63087;SDS011;49173;43.164;27.786;2023-08-06T13:16:34;4.88;;;2.35;;
63087;SDS011;49173;43.164;27.786;2023-08-06T13:19:01;6.13;;;2.35;;
63087;SDS011;49173;43.164;27.786;2023-08-06T13:21:35;5.15;;;2.80;;
63087;SDS011;49173;43.164;27.786;2023-08-06T13:24:07;6.32;;;3.75;;
63087;SDS011;49173;43.164;27.786;2023-08-06T13:26:34;7.43;;;3.60;;
63087;SDS011;49173;43.164;27.786;2023-08-06T13:29:00;10.35;;;4.47;;
63087;SDS011;49173;43.164;27.786;2023-08-06T13:31:27;5.63;;;3.35;;
63087;SDS011;49173;43.164;27.786;2023-08-06T13:33:54;6.63;;;3.17;;
63087;SDS011;49173;43.164;27.786;2023-08-06T13:36:21;5.78;;;2.95;;
63087;SDS011;49173;43.164;27.786;2023-08-06T13:38:47;4.53;;;2.67;;
63087;SDS011;49173;43.164;27.786;2023-08-06T13:41:13;4.05;;;2.47;;
63087;SDS011;49173;43.164;27.786;2023-08-06T13:43:39;5.70;;;2.63;;
63087;SDS011;49173;43.164;27.786;2023-08-06T13:46:05;5.07;;;2.20;;
63087;SDS011;49173;43.164;27.786;2023-08-06T13:48:31;7.78;;;2.42;;
63087;SDS011;49173;43.164;27.786;2023-08-06T13:50:57;4.18;;;2.60;;
63087;SDS011;49173;43.164;27.786;2023-08-06T13:53:23;3.53;;;2.20;;
63087;SDS011;49173;43.164;27.786;2023-08-06T13:55:50;4.38;;;2.55;;
63087;SDS011;49173;43.164;27.786;2023-08-06T13:58:16;5.00;;;2.70;;
63087;SDS011;49173;43.164;27.786;2023-08-06T14:00:42;9.18;;;5.72;;
63087;SDS011;49173;43.164;27.786;2023-08-06T14:03:08;5.22;;;3.03;;
63087;SDS011;49173;43.164;27.786;2023-08-06T14:05:34;4.65;;;3.10;;
63087;SDS011;49173;43.164;27.786;2023-08-06T14:07:59;6.18;;;5.55;;
63087;SDS011;49173;43.164;27.786;2023-08-06T14:10:25;5.43;;;4.47;;
63087;SDS011;49173;43.164;27.786;2023-08-06T14:12:56;3.80;;;3.00;;
63087;SDS011;49173;43.164;27.786;2023-08-06T14:15:25;4.53;;;2.75;;
63087;SDS011;49173;43.164;27.786;2023-08-06T14:17:58;6.70;;;5.53;;
63087;SDS011;49173;43.164;27.786;2023-08-06T14:20:28;4.45;;;3.42;;
63087;SDS011;49173;43.164;27.786;2023-08-06T14:23:02;7.70;;;5.68;;
63087;SDS011;49173;43.164;27.786;2023-08-06T14:25:35;5.38;;;3.13;;
63087;SDS011;49173;43.164;27.786;2023-08-06T14:28:13;4.18;;;2.80;;
63087;SDS011;49173;43.164;27.786;2023-08-06T14:30:42;4.45;;;2.70;;
63087;SDS011;49173;43.164;27.786;2023-08-06T14:33:12;4.07;;;3.05;;
63087;SDS011;49173;43.164;27.786;2023-08-06T14:35:41;5.28;;;2.85;;
63087;SDS011;49173;43.164;27.786;2023-08-06T14:38:08;4.75;;;3.03;;
63087;SDS011;49173;43.164;27.786;2023-08-06T14:40:37;4.20;;;2.70;;
63087;SDS011;49173;43.164;27.786;2023-08-06T14:43:09;5.07;;;2.60;;